Time;durP1;ratioP1;P1;durP2;ratioP2;P2;SDS_P1;SDS_P2;PMS_P1;PMS_P2;Temp;Humidity;BMP_temperature;BMP_pressure;BME280_temperature;BME280_humidity;BME280_pressure;Samples;Min_cycle;Max_cycle;Signal;HPM_P1;HPM_P2
2021/01/05 05:42:27;;;;;;;;;;;;;;;1.30;90.14;100485.34;1790509;78;20183;-42
2021/01/05 05:44:58;;;;;;;;;;;;;;;1.29;90.24;100483.18;1713389;83;20186;-47
2021/01/05 05:48:01;;;;;;;;;;;;;;;1.35;90.34;100482.95;1798613;79;20308;-43
2021/01/05 05:50:44;;;;;;;;;;;;;;;1.31;90.27;100477.66;1769761;79;20170;-47
2021/01/05 05:53:15;;;;;;;;;;;;;;;1.36;90.31;100480.84;1771008;79;20183;-47
2021/01/05 05:55:58;;;;;;;;;;;;;;;1.37;90.15;100489.05;1753987;80;20181;-43
2021/01/05 05:58:28;;;;;;;;;;;;;;;1.38;90.07;100481.77;1753779;80;20213;-47
2021/01/05 06:00:58;;;;;;;;;;;;;;;1.38;90.04;100490.39;1771161;80;20398;-47
2021/01/05 06:03:26;;;;;;;;;;;;;;;1.40;90.05;100493.93;1719801;82;20173;-46
2021/01/05 06:05:54;;;;;;;;;;;;;;;1.40;89.96;100493.93;1705841;83;20198;-45
2021/01/05 06:08:23;;;;;;;;;;;;;;;1.41;90.06;100498.26;1722301;82;20191;-42
2021/01/05 06:10:59;;;;;;;;;;;;;;;1.47;90.08;100497.63;1741168;81;20183;-42
2021/01/05 06:13:29;;;;;;;;;;;;;;;1.50;89.92;100507.63;1734384;81;20175;-46
2021/01/05 06:15:57;;;;;;;;;;;;;;;1.55;89.96;100498.37;1719779;82;20568;-47
2021/01/05 06:18:25;;;;;;;;;;;;;;;1.59;89.77;100508.01;1708968;82;20195;-47
2021/01/05 06:20:54;;;;;;;;;;;;;;;1.61;89.47;100495.16;1727104;81;20201;-43
2021/01/05 06:23:22;;;;;;;;;;;;;;;1.60;89.28;100499.44;1710350;82;20222;-42
2021/01/05 06:25:49;;;;;;;;;;;;;;;1.58;88.61;100497.23;1728505;81;20549;-42
2021/01/05 06:28:23;;;;;;;;;;;;;;;1.54;88.43;100495.75;1703277;82;20262;-42
2021/01/05 06:30:53;;;;;;;;;;;;;;;1.49;88.39;100495.56;1719347;82;20216;-43
2021/01/05 06:33:20;;;;;;;;;;;;;;;1.46;88.48;100489.42;1718820;82;20198;-43
2021/01/05 06:35:50;;;;;;;;;;;;;;;1.46;88.57;100494.17;1717842;82;20159;-46
2021/01/05 06:38:22;;;;;;;;;;;;;;;1.48;88.55;100495.51;1714660;82;20568;-47
2021/01/05 06:41:09;;;;;;;;;;;;;;;1.49;88.62;100492.98;1719116;82;20175;-48
2021/01/05 06:43:37;;;;;;;;;;;;;;;1.49;88.41;100494.69;1714188;82;20488;-48
2021/01/05 06:46:04;;;;;;;;;;;;;;;1.48;88.41;100490.35;1715114;82;20166;-47
2021/01/05 06:48:37;;;;;;;;;;;;;;;1.47;88.35;100498.50;1702328;83;20465;-47
2021/01/05 06:51:05;;;;;;;;;;;;;;;1.43;88.48;100503.05;1700910;83;20176;-45
2021/01/05 06:53:33;;;;;;;;;;;;;;;1.41;88.69;100507.28;1712658;83;20608;-42
2021/01/05 06:56:01;;;;;;;;;;;;;;;1.40;88.83;100505.94;1711357;83;20227;-43
2021/01/05 06:58:30;;;;;;;;;;;;;;;1.40;89.06;100514.97;1699627;83;20591;-42
2021/01/05 07:00:57;;;;;;;;;;;;;;;1.42;89.19;100512.91;1705719;83;20192;-43
2021/01/05 07:03:28;;;;;;;;;;;;;;;1.43;88.99;100507.34;1705507;83;20211;-42
2021/01/05 07:06:04;;;;;;;;;;;;;;;1.38;88.18;100507.14;1702413;83;20252;-44
2021/01/05 07:08:34;;;;;;;;;;;;;;;1.28;87.70;100505.04;1698701;83;20542;-42
2021/01/05 07:11:06;;;;;;;;;;;;;;;1.17;87.59;100504.59;1707863;83;20195;-42
2021/01/05 07:13:34;;;;;;;;;;;;;;;1.13;87.63;100498.84;1706940;83;20268;-42
2021/01/05 07:16:03;;;;;;;;;;;;;;;1.11;87.35;100491.47;1700288;83;20180;-44
2021/01/05 07:18:32;;;;;;;;;;;;;;;1.06;87.26;100491.68;1705328;83;20227;-47
2021/01/05 07:21:00;;;;;;;;;;;;;;;0.99;87.25;100481.53;1703211;83;20536;-42
2021/01/05 07:23:29;;;;;;;;;;;;;;;0.94;87.27;100471.44;1701523;83;20532;-41
2021/01/05 07:25:57;;;;;;;;;;;;;;;0.90;87.23;100471.25;1703713;83;20305;-44
2021/01/05 07:28:24;;;;;;;;;;;;;;;0.86;87.09;100477.95;1703103;83;20497;-42
2021/01/05 07:30:54;;;;;;;;;;;;;;;0.85;87.25;100486.91;1698984;83;20195;-46
2021/01/05 07:33:22;;;;;;;;;;;;;;;0.83;87.47;100480.83;1698880;83;20567;-47
2021/01/05 07:35:49;;;;;;;;;;;;;;;0.83;87.68;100480.42;1702588;83;20479;-54
2021/01/05 07:38:17;;;;;;;;;;;;;;;0.83;87.78;100479.13;1701891;83;20172;-43
2021/01/05 07:40:44;;;;;;;;;;;;;;;0.83;87.90;100487.27;1699935;83;20437;-43
2021/01/05 07:43:12;;;;;;;;;;;;;;;0.83;87.98;100477.84;1701263;83;20170;-42
2021/01/05 07:45:39;;;;;;;;;;;;;;;0.85;87.95;100480.06;1702512;83;20547;-43
2021/01/05 07:48:07;;;;;;;;;;;;;;;0.86;87.99;100473.21;1700484;83;20168;-44
2021/01/05 07:50:37;;;;;;;;;;;;;;;0.91;87.98;100473.00;1693727;83;20477;-41
2021/01/05 07:53:05;;;;;;;;;;;;;;;0.92;87.90;100472.17;1697170;84;20172;-47
2021/01/05 07:55:35;;;;;;;;;;;;;;;0.95;87.87;100471.03;1694157;84;20184;-43
2021/01/05 07:58:03;;;;;;;;;;;;;;;0.96;87.54;100474.95;1693709;84;20165;-42
2021/01/05 08:00:32;;;;;;;;;;;;;;;0.95;87.27;100474.89;1700010;83;20581;-42
2021/01/05 08:03:00;;;;;;;;;;;;;;;0.93;87.29;100472.64;1702277;83;20257;-46
2021/01/05 08:05:28;;;;;;;;;;;;;;;0.92;87.37;100469.60;1704483;83;20207;-47
2021/01/05 08:07:56;;;;;;;;;;;;;;;0.96;87.33;100456.91;1696527;83;20174;-46
2021/01/05 08:10:28;;;;;;;;;;;;;;;0.97;87.13;100457.37;1701195;83;20178;-46
2021/01/05 08:12:55;;;;;;;;;;;;;;;1.00;87.22;100454.94;1696077;84;20548;-46
2021/01/05 08:15:25;;;;;;;;;;;;;;;1.07;87.29;100456.06;1694163;83;20192;-47
2021/01/05 08:17:59;;;;;;;;;;;;;;;1.09;86.97;100454.42;1668307;83;20579;-42
2021/01/05 08:20:28;;;;;;;;;;;;;;;1.04;86.68;100444.33;1690882;83;20435;-43
2021/01/05 08:22:57;;;;;;;;;;;;;;;0.97;86.59;100440.63;1689072;83;20365;-42
2021/01/05 08:25:24;;;;;;;;;;;;;;;0.93;86.68;100449.45;1663485;84;20173;-43
2021/01/05 08:27:51;;;;;;;;;;;;;;;0.90;86.86;100443.78;1692340;83;20227;-42
2021/01/05 08:30:22;;;;;;;;;;;;;;;0.87;86.90;100448.83;1691684;83;20191;-42
2021/01/05 08:32:50;;;;;;;;;;;;;;;0.84;86.90;100452.96;1694993;83;20172;-41
2021/01/05 08:35:19;;;;;;;;;;;;;;;0.80;87.08;100457.97;1708848;82;20154;-42
2021/01/05 08:37:46;;;;;;;;;;;;;;;0.81;87.09;100447.25;1696130;84;20279;-47
2021/01/05 08:40:18;;;;;;;;;;;;;;;0.79;87.00;100438.19;1701500;83;20176;-47
2021/01/05 08:42:45;;;;;;;;;;;;;;;0.80;86.95;100439.06;1696183;83;20191;-47
2021/01/05 08:45:14;;;;;;;;;;;;;;;0.82;86.67;100434.00;1697505;84;20196;-46
2021/01/05 08:47:41;;;;;;;;;;;;;;;0.80;86.19;100431.34;1709081;83;20647;-47
2021/01/05 08:50:10;;;;;;;;;;;;;;;0.76;86.18;100426.48;1711922;82;20173;-47
2021/01/05 08:52:37;;;;;;;;;;;;;;;0.76;86.09;100426.48;1707053;82;20213;-47
2021/01/05 08:55:06;;;;;;;;;;;;;;;0.76;85.99;100431.64;1715570;82;20261;-47
2021/01/05 08:57:33;;;;;;;;;;;;;;;0.76;85.82;100427.77;1712533;82;20179;-47
2021/01/05 09:00:01;;;;;;;;;;;;;;;0.79;85.75;100426.59;1711982;83;20162;-47
2021/01/05 09:02:29;;;;;;;;;;;;;;;0.84;85.64;100420.76;1709357;82;20472;-46
2021/01/05 09:04:57;;;;;;;;;;;;;;;0.87;85.33;100427.31;1713814;82;20472;-47
2021/01/05 09:07:24;;;;;;;;;;;;;;;0.89;85.27;100431.73;1710720;82;20280;-47
2021/01/05 09:09:52;;;;;;;;;;;;;;;0.92;85.19;100430.55;1712203;82;20204;-45
2021/01/05 09:12:21;;;;;;;;;;;;;;;0.94;85.36;100422.90;1707216;83;20211;-42
2021/01/05 09:14:56;;;;;;;;;;;;;;;0.97;85.39;100408.42;1708006;83;20180;-47
2021/01/05 09:17:23;;;;;;;;;;;;;;;1.00;85.54;100405.11;1708854;83;20518;-42
2021/01/05 09:19:53;;;;;;;;;;;;;;;1.06;85.58;100402.77;1711689;82;20174;-43
2021/01/05 09:22:24;;;;;;;;;;;;;;;1.11;85.49;100401.27;1706171;82;20191;-41
2021/01/05 09:24:53;;;;;;;;;;;;;;;1.14;85.40;100399.20;1705597;82;20184;-47
2021/01/05 09:27:26;;;;;;;;;;;;;;;1.13;85.32;100392.30;1667328;84;20167;-47
2021/01/05 09:29:54;;;;;;;;;;;;;;;1.14;85.02;100391.47;1703486;82;20539;-47
2021/01/05 09:32:21;;;;;;;;;;;;;;;1.14;84.97;100391.47;1708032;82;20287;-47
2021/01/05 09:34:49;;;;;;;;;;;;;;;1.16;85.09;100388.16;1706584;82;20212;-43
2021/01/05 09:37:16;;;;;;;;;;;;;;;1.21;84.84;100380.58;1714516;82;20588;-42
2021/01/05 09:39:44;;;;;;;;;;;;;;;1.22;84.67;100377.20;1703925;82;20477;-43
2021/01/05 09:42:11;;;;;;;;;;;;;;;1.21;84.50;100379.28;1708633;82;20171;-42
2021/01/05 09:44:39;;;;;;;;;;;;;;;1.19;84.35;100377.07;1677832;83;20170;-43
2021/01/05 09:47:07;;;;;;;;;;;;;;;1.15;84.30;100382.50;1711689;81;20452;-43
2021/01/05 09:49:37;;;;;;;;;;;;;;;1.13;84.35;100384.16;1725822;82;20621;-43
2021/01/05 09:52:08;;;;;;;;;;;;;;;1.11;84.29;100375.49;1724627;81;20187;-47
2021/01/05 09:54:37;;;;;;;;;;;;;;;1.10;84.47;100371.55;1692948;81;20614;-45
2021/01/05 09:57:05;;;;;;;;;;;;;;;1.09;84.51;100367.22;1724735;81;20185;-43
2021/01/05 09:59:32;;;;;;;;;;;;;;;1.05;84.49;100368.41;1733086;81;20494;-48
2021/01/05 10:02:04;;;;;;;;;;;;;;;1.08;84.75;100369.33;1729365;81;20273;-47
2021/01/05 10:04:31;;;;;;;;;;;;;;;1.09;84.95;100370.67;1723687;81;20184;-48
2021/01/05 10:06:59;;;;;;;;;;;;;;;1.14;85.05;100373.02;1723333;81;20165;-45
2021/01/05 10:09:33;;;;;;;;;;;;;;;1.20;85.23;100370.67;1726450;81;20172;-42
2021/01/05 10:12:01;;;;;;;;;;;;;;;1.26;84.80;100375.19;1723980;81;20566;-41
2021/01/05 10:14:30;;;;;;;;;;;;;;;1.26;84.38;100366.17;1727574;81;20193;-47
2021/01/05 10:16:58;;;;;;;;;;;;;;;1.27;84.24;100357.61;1723477;81;20588;-47
2021/01/05 10:19:26;;;;;;;;;;;;;;;1.25;84.27;100358.84;1730750;81;20161;-41
2021/01/05 10:22:00;;;;;;;;;;;;;;;1.28;84.47;100349.08;1700120;81;20443;-43
2021/01/05 10:24:28;;;;;;;;;;;;;;;1.36;84.74;100346.38;1728007;81;20226;-42
2021/01/05 10:26:57;;;;;;;;;;;;;;;1.43;84.63;100347.06;1723458;81;20550;-43
2021/01/05 10:29:25;;;;;;;;;;;;;;;1.49;84.37;100356.73;1727495;81;20206;-42
2021/01/05 10:31:54;;;;;;;;;;;;;;;1.49;84.08;100351.16;1726174;81;20208;-41
2021/01/05 10:34:23;;;;;;;;;;;;;;;1.50;84.06;100352.91;1723003;81;20199;-47
2021/01/05 10:36:57;;;;;;;;;;;;;;;1.48;83.66;100355.85;1727095;81;20288;-46
2021/01/05 10:39:28;;;;;;;;;;;;;;;1.43;83.52;100343.61;1727354;81;20186;-44
2021/01/05 10:42:02;;;;;;;;;;;;;;;1.33;83.68;100334.26;1726548;81;20266;-42
2021/01/05 10:44:30;;;;;;;;;;;;;;;1.29;83.77;100315.63;1725174;81;20167;-45
2021/01/05 10:47:01;;;;;;;;;;;;;;;1.25;83.90;100327.92;1727319;81;20436;-48
2021/01/05 10:49:28;;;;;;;;;;;;;;;1.22;83.95;100317.92;1714451;82;20839;-47
2021/01/05 10:51:57;;;;;;;;;;;;;;;1.19;84.08;100318.66;1718637;82;20171;-50
2021/01/05 10:54:29;;;;;;;;;;;;;;;1.20;84.36;100329.44;1705933;83;20194;-46
2021/01/05 10:57:00;;;;;;;;;;;;;;;1.23;84.49;100320.55;1675382;83;20202;-47
2021/01/05 10:59:30;;;;;;;;;;;;;;;1.26;84.52;100325.80;1684148;83;20185;-46
2021/01/05 11:01:59;;;;;;;;;;;;;;;1.26;84.46;100316.78;1681970;83;20224;-47
2021/01/05 11:04:27;;;;;;;;;;;;;;;1.29;84.52;100301.44;1680253;83;20173;-49
2021/01/05 11:06:58;;;;;;;;;;;;;;;1.31;84.54;100303.66;1698478;82;20203;-46
2021/01/05 11:09:26;;;;;;;;;;;;;;;1.31;84.72;100300.20;1692196;82;20177;-44
2021/01/05 11:12:02;;;;;;;;;;;;;;;1.35;84.99;100297.34;1691922;82;20134;-43
2021/01/05 11:14:30;;;;;;;;;;;;;;;1.37;84.83;100287.54;1693321;82;20213;-43
2021/01/05 11:16:57;;;;;;;;;;;;;;;1.38;84.81;100281.55;1694966;82;20182;-41
2021/01/05 11:19:25;;;;;;;;;;;;;;;1.42;84.84;100276.98;1675468;83;20494;-42
2021/01/05 11:21:54;;;;;;;;;;;;;;;1.46;84.51;100272.83;1684644;83;20166;-44
2021/01/05 11:24:23;;;;;;;;;;;;;;;1.44;84.50;100280.90;1676429;83;20187;-45
2021/01/05 11:26:50;;;;;;;;;;;;;;;1.42;84.62;100272.24;1677176;83;20167;-44
2021/01/05 11:29:18;;;;;;;;;;;;;;;1.43;84.67;100281.73;1684946;83;20650;-42
2021/01/05 11:31:55;;;;;;;;;;;;;;;1.43;84.89;100281.73;1711569;82;20178;-41
2021/01/05 11:34:23;;;;;;;;;;;;;;;1.42;84.79;100274.41;1699164;83;20179;-43
2021/01/05 11:36:51;;;;;;;;;;;;;;;1.43;84.73;100270.13;1701209;83;20448;-41
2021/01/05 11:39:20;;;;;;;;;;;;;;;1.44;84.69;100268.88;1701252;83;20208;-42
2021/01/05 11:41:47;;;;;;;;;;;;;;;1.43;84.57;100272.70;1693369;83;20178;-40
2021/01/05 11:44:15;;;;;;;;;;;;;;;1.40;84.71;100277.35;1701093;82;20192;-46
2021/01/05 11:46:43;;;;;;;;;;;;;;;1.40;84.91;100280.34;1699860;82;20191;-47
2021/01/05 11:49:10;;;;;;;;;;;;;;;1.41;85.06;100284.26;1697651;82;20473;-45
2021/01/05 11:51:38;;;;;;;;;;;;;;;1.45;85.23;100281.36;1700583;83;20557;-44
2021/01/05 11:54:05;;;;;;;;;;;;;;;1.50;85.21;100279.83;1694199;83;20289;-41
2021/01/05 11:56:33;;;;;;;;;;;;;;;1.51;85.29;100276.04;1698414;83;20799;-42
2021/01/05 11:59:01;;;;;;;;;;;;;;;1.50;85.24;100266.52;1697129;83;20453;-42
2021/01/05 12:01:35;;;;;;;;;;;;;;;1.56;85.46;100272.31;1683582;83;20485;-43
2021/01/05 12:04:05;;;;;;;;;;;;;;;1.62;85.38;100271.23;1702187;83;20180;-43
2021/01/05 12:06:32;;;;;;;;;;;;;;;1.65;85.28;100275.64;1700709;83;20180;-42
2021/01/05 12:09:00;;;;;;;;;;;;;;;1.67;85.31;100272.70;1702952;83;20208;-45
2021/01/05 12:11:29;;;;;;;;;;;;;;;1.67;85.19;100273.57;1701731;83;20531;-44
2021/01/05 12:13:57;;;;;;;;;;;;;;;1.70;85.41;100265.95;1700879;83;20161;-43
2021/01/05 12:16:29;;;;;;;;;;;;;;;1.75;85.36;100263.13;1699819;83;20163;-40
2021/01/05 12:18:58;;;;;;;;;;;;;;;1.80;85.39;100274.48;1700002;83;20184;-46
2021/01/05 12:21:32;;;;;;;;;;;;;;;1.84;85.14;100271.17;1700002;83;20254;-41
2021/01/05 12:24:00;;;;;;;;;;;;;;;1.86;84.91;100266.96;1704600;83;20302;-41
2021/01/05 12:26:33;;;;;;;;;;;;;;;1.83;84.73;100262.97;1701602;82;20176;-42
2021/01/05 12:29:03;;;;;;;;;;;;;;;1.81;84.86;100258.59;1700861;83;20538;-41
2021/01/05 12:31:41;;;;;;;;;;;;;;;1.78;84.87;100272.66;1702778;82;20288;-47
2021/01/05 12:34:08;;;;;;;;;;;;;;;1.76;84.95;100274.32;1701897;83;20199;-42
2021/01/05 12:36:38;;;;;;;;;;;;;;;1.75;84.99;100272.57;1708000;83;20614;-40
2021/01/05 12:39:11;;;;;;;;;;;;;;;1.74;85.05;100273.38;1703456;83;20423;-42
2021/01/05 12:41:41;;;;;;;;;;;;;;;1.74;85.15;100281.11;1686421;83;20184;-47
2021/01/05 12:44:14;;;;;;;;;;;;;;;1.74;85.13;100276.86;1701627;83;20143;-47
2021/01/05 12:46:45;;;;;;;;;;;;;;;1.73;85.16;100280.23;1672054;83;20204;-41
2021/01/05 12:49:13;;;;;;;;;;;;;;;1.75;85.09;100285.47;1696401;83;20497;-43
2021/01/05 12:51:43;;;;;;;;;;;;;;;1.77;85.16;100282.52;1703660;83;20281;-42
2021/01/05 12:54:14;;;;;;;;;;;;;;;1.79;85.07;100276.99;1702682;83;20459;-42
2021/01/05 12:56:46;;;;;;;;;;;;;;;1.79;84.99;100277.87;1696976;83;20466;-45
2021/01/05 12:59:14;;;;;;;;;;;;;;;1.80;84.86;100269.33;1702061;83;20287;-46
2021/01/05 13:01:42;;;;;;;;;;;;;;;1.79;84.92;100267.96;1702924;83;20397;-41
2021/01/05 13:04:11;;;;;;;;;;;;;;;1.80;84.92;100265.46;1697435;82;20281;-42
2021/01/05 13:06:39;;;;;;;;;;;;;;;1.80;85.04;100262.00;1697943;83;20285;-42
2021/01/05 13:09:06;;;;;;;;;;;;;;;1.82;84.98;100262.92;1699597;83;20186;-46
2021/01/05 13:11:34;;;;;;;;;;;;;;;1.82;85.11;100260.34;1695533;83;20168;-43
2021/01/05 13:14:04;;;;;;;;;;;;;;;1.82;85.04;100266.38;1704612;83;20456;-42
2021/01/05 13:16:32;;;;;;;;;;;;;;;1.82;84.92;100258.64;1714737;82;20201;-42
2021/01/05 13:19:01;;;;;;;;;;;;;;;1.80;84.77;100262.00;1716460;82;20442;-41
2021/01/05 13:21:35;;;;;;;;;;;;;;;1.78;84.90;100266.21;1709038;83;20521;-46
2021/01/05 13:24:17;;;;;;;;;;;;;;;1.78;84.88;100263.22;1703462;83;20148;-43
2021/01/05 13:26:45;;;;;;;;;;;;;;;1.75;84.78;100260.97;1711659;83;20155;-42
2021/01/05 13:29:17;;;;;;;;;;;;;;;1.75;84.96;100272.16;1696994;83;20156;-43
2021/01/05 13:31:50;;;;;;;;;;;;;;;1.76;84.99;100276.91;1713249;83;20204;-43
2021/01/05 13:34:20;;;;;;;;;;;;;;;1.76;84.86;100260.14;1702353;83;20180;-41
2021/01/05 13:36:48;;;;;;;;;;;;;;;1.76;84.80;100258.43;1698922;83;20553;-47
2021/01/05 13:39:17;;;;;;;;;;;;;;;1.78;84.83;100274.83;1697588;83;20202;-42
2021/01/05 13:41:47;;;;;;;;;;;;;;;1.79;84.77;100283.44;1713067;83;20184;-43
2021/01/05 13:44:14;;;;;;;;;;;;;;;1.81;84.77;100291.72;1703962;83;20162;-46
2021/01/05 13:46:42;;;;;;;;;;;;;;;1.83;84.76;100296.92;1700110;83;20170;-42
2021/01/05 13:49:18;;;;;;;;;;;;;;;1.82;84.67;100289.59;1703207;83;20217;-46
2021/01/05 13:51:50;;;;;;;;;;;;;;;1.85;84.81;100283.66;1673780;85;20288;-46
2021/01/05 13:54:20;;;;;;;;;;;;;;;1.90;84.60;100279.95;1682246;84;20238;-45
2021/01/05 13:56:53;;;;;;;;;;;;;;;1.91;84.41;100272.25;1684963;84;20197;-42
2021/01/05 13:59:23;;;;;;;;;;;;;;;1.89;84.16;100273.04;1686814;84;20212;-45
2021/01/05 14:01:57;;;;;;;;;;;;;;;1.88;84.20;100277.74;1690369;85;20184;-41
2021/01/05 14:04:25;;;;;;;;;;;;;;;1.87;84.05;100279.45;1708247;83;20176;-43
2021/01/05 14:06:58;;;;;;;;;;;;;;;1.84;83.96;100276.74;1691605;85;20178;-43
2021/01/05 14:09:28;;;;;;;;;;;;;;;1.82;84.08;100269.38;1699125;84;20296;-42
2021/01/05 14:11:57;;;;;;;;;;;;;;;1.82;84.12;100271.54;1700439;84;20471;-48
2021/01/05 14:14:39;;;;;;;;;;;;;;;1.81;84.03;100276.66;1687872;85;20176;-45
2021/01/05 14:16:57;;;;;;;;;;;;;;;1.79;84.08;100283.44;1663867;85;20206;-46
2021/01/05 14:19:25;;;;;;;;;;;;;;;1.76;84.11;100284.23;1685333;83;20186;-45
2021/01/05 14:21:54;;;;;;;;;;;;;;;1.76;84.21;100279.48;1710976;83;20270;-47
2021/01/05 14:24:25;;;;;;;;;;;;;;;1.77;84.20;100277.36;1709183;83;20184;-42
2021/01/05 14:26:53;;;;;;;;;;;;;;;1.78;84.13;100279.98;1720789;83;20629;-42
2021/01/05 14:29:21;;;;;;;;;;;;;;;1.79;84.07;100265.38;1692861;83;20200;-46
2021/01/05 14:31:51;;;;;;;;;;;;;;;1.77;84.07;100259.30;1722197;83;20180;-46
2021/01/05 14:34:19;;;;;;;;;;;;;;;1.80;84.25;100268.45;1720795;83;20140;-42
2021/01/05 14:36:46;;;;;;;;;;;;;;;1.82;84.15;100268.09;1707873;83;20462;-45
2021/01/05 14:39:14;;;;;;;;;;;;;;;1.84;84.16;100263.43;1712903;83;20474;-47
2021/01/05 14:41:44;;;;;;;;;;;;;;;1.87;84.10;100256.22;1719124;83;20185;-46
2021/01/05 14:44:26;;;;;;;;;;;;;;;1.89;83.93;100256.27;1718518;83;20172;-42
2021/01/05 14:47:04;;;;;;;;;;;;;;;1.88;83.80;100259.68;1719644;83;20156;-46
2021/01/05 14:49:32;;;;;;;;;;;;;;;1.86;83.85;100264.80;1714970;83;20542;-43
2021/01/05 14:52:01;;;;;;;;;;;;;;;1.86;83.83;100264.80;1713945;84;20157;-42
2021/01/05 14:54:29;;;;;;;;;;;;;;;1.83;83.88;100260.39;1713545;84;20153;-42
2021/01/05 14:56:56;;;;;;;;;;;;;;;1.84;83.91;100263.84;1713144;84;20439;-43
